Time;durP1;ratioP1;P1;durP2;ratioP2;P2;SDS_P1;SDS_P2;PMS_P1;PMS_P2;Temp;Humidity;BMP_temperature;BMP_pressure;BME280_temperature;BME280_humidity;BME280_pressure;Samples;Min_cycle;Max_cycle;Signal;HPM_P1;HPM_P2
2023/01/02 00:00:25;;;;;;;3.27;2.97;;;;;;;11.38;86.80;101238.84;6265373;28;20227;-72
2023/01/02 00:03:46;;;;;;;2.07;1.27;;;;;;;11.41;86.93;101248.50;6260438;28;21184;-73
2023/01/02 00:07:08;;;;;;;2.27;1.63;;;;;;;11.23;87.11;101230.22;6264163;28;20251;-71
2023/01/02 00:10:29;;;;;;;3.47;2.40;;;;;;;11.17;88.70;101244.22;6268449;28;20578;-72
2023/01/02 00:13:51;;;;;;;4.07;2.20;;;;;;;11.24;88.59;101242.69;6277720;28;20231;-72
2023/01/02 00:17:11;;;;;;;2.90;2.70;;;;;;;11.22;88.49;101233.88;6263548;28;20317;-73
2023/01/02 00:20:33;;;;;;;2.40;1.50;;;;;;;11.19;89.74;101220.66;6266716;28;20235;-72
2023/01/02 00:23:55;;;;;;;6.60;2.10;;;;;;;11.37;89.49;101218.22;6277179;28;20219;-73
2023/01/02 00:27:16;;;;;;;4.00;2.43;;;;;;;11.43;88.66;101206.88;6265625;28;20239;-72
2023/01/02 00:30:37;;;;;;;1.87;1.77;;;;;;;11.17;90.40;101206.47;6266917;28;20657;-72
2023/01/02 00:33:58;;;;;;;8.83;2.00;;;;;;;11.16;90.60;101202.03;6248753;28;20239;-73
2023/01/02 00:37:19;;;;;;;1.40;1.20;;;;;;;11.11;91.86;101188.09;6268478;28;20258;-72
2023/01/02 00:40:41;;;;;;;1.70;1.60;;;;;;;11.20;92.02;101178.34;6263874;28;20239;-74
2023/01/02 00:44:02;;;;;;;1.77;1.67;;;;;;;11.24;91.55;101171.69;6278516;28;20231;-72
2023/01/02 00:47:23;;;;;;;2.40;2.07;;;;;;;11.20;92.16;101151.38;6262333;28;20563;-72
2023/01/02 00:50:44;;;;;;;2.47;1.40;;;;;;;11.21;92.78;101140.44;6265027;28;20344;-73
2023/01/02 00:54:06;;;;;;;2.57;1.93;;;;;;;11.18;92.27;101135.28;6278388;28;20231;-73
2023/01/02 00:57:28;;;;;;;5.27;2.47;;;;;;;11.12;93.97;101125.03;6266560;28;20516;-72
2023/01/02 01:00:50;;;;;;;2.33;1.80;;;;;;;11.28;93.27;101119.16;6267158;28;20508;-72
2023/01/02 01:04:11;;;;;;;2.07;1.30;;;;;;;11.36;92.60;101113.09;6279115;28;20227;-73
2023/01/02 01:07:31;;;;;;;3.57;2.30;;;;;;;11.18;92.70;101111.00;6264730;28;20600;-73
2023/01/02 01:10:52;;;;;;;7.27;2.70;;;;;;;11.18;93.43;101100.22;6268380;28;20227;-71
2023/01/02 01:14:14;;;;;;;2.50;1.77;;;;;;;11.12;93.36;101102.59;6279569;28;20644;-73
2023/01/02 01:17:35;;;;;;;2.03;1.83;;;;;;;11.18;93.36;101100.22;6265350;28;20487;-72
2023/01/02 01:20:58;;;;;;;2.27;1.97;;;;;;;10.92;94.56;101100.78;6266306;28;20238;-73
2023/01/02 01:24:19;;;;;;;2.17;1.70;;;;;;;10.79;96.12;101095.59;6277440;28;20231;-73
2023/01/02 01:27:40;;;;;;;1.70;1.60;;;;;;;10.84;96.41;101096.06;6263261;28;20273;-72
2023/01/02 01:31:03;;;;;;;2.57;2.07;;;;;;;10.98;95.59;101100.25;6266119;28;20238;-72
2023/01/02 01:34:24;;;;;;;1.93;1.57;;;;;;;11.02;94.62;101091.75;6273243;28;20231;-72
2023/01/02 01:37:45;;;;;;;1.83;1.73;;;;;;;10.92;94.50;101087.28;6260193;28;20818;-72
2023/01/02 01:41:06;;;;;;;2.20;2.10;;;;;;;11.02;94.97;101089.06;6259288;28;20393;-73
2023/01/02 01:44:46;;;;;;;3.07;2.73;;;;;;;10.81;95.94;101088.22;6278694;28;20219;-71
2023/01/02 01:48:12;;;;;;;3.73;2.00;;;;;;;10.96;95.29;101072.56;6257124;28;20262;-72
2023/01/02 01:51:39;;;;;;;4.57;2.50;;;;;;;11.04;94.64;101059.25;6257049;28;20478;-73
2023/01/02 01:55:03;;;;;;;2.20;1.40;;;;;;;10.86;95.55;101061.72;6260326;28;20235;-72
2023/01/02 01:58:28;;;;;;;2.40;1.90;;;;;;;10.82;96.03;101051.34;6278286;28;20223;-73
2023/01/02 02:01:50;;;;;;;3.60;2.23;;;;;;;10.69;96.03;101051.53;6262272;28;20231;-73
2023/01/02 02:05:15;;;;;;;5.00;3.33;;;;;;;10.71;96.15;101049.56;6262011;28;20231;-72
2023/01/02 02:08:44;;;;;;;1.90;1.60;;;;;;;10.77;96.82;101037.38;6275804;28;20227;-73
2023/01/02 02:12:06;;;;;;;3.40;2.20;;;;;;;10.68;96.36;101027.41;6268874;28;20504;-72
2023/01/02 02:15:38;;;;;;;2.63;1.57;;;;;;;10.79;96.31;101025.47;6266985;28;20219;-71
2023/01/02 02:19:29;;;;;;;2.90;2.57;;;;;;;10.70;96.82;101012.78;6273436;28;20592;-72
2023/01/02 02:23:14;;;;;;;3.70;2.27;;;;;;;10.65;97.73;101006.09;6262947;28;20235;-72
2023/01/02 02:26:59;;;;;;;6.20;1.93;;;;;;;10.78;96.80;100996.81;6253990;28;20645;-72
2023/01/02 02:30:22;;;;;;;3.63;3.10;;;;;;;10.76;96.52;100989.84;6262185;28;20235;-72
2023/01/02 02:33:53;;;;;;;4.00;2.10;;;;;;;10.83;96.66;100983.75;6271673;28;20235;-72
2023/01/02 02:37:22;;;;;;;2.53;1.93;;;;;;;10.74;96.82;100990.00;6267587;28;20223;-73
2023/01/02 02:40:54;;;;;;;5.33;2.27;;;;;;;10.69;97.27;100986.84;6264291;28;20222;-72
2023/01/02 02:44:25;;;;;;;2.97;1.87;;;;;;;10.80;97.50;100984.06;6270886;28;20583;-72
2023/01/02 02:47:52;;;;;;;3.93;2.20;;;;;;;10.65;98.32;100985.38;6262880;28;20604;-72
2023/01/02 02:51:19;;;;;;;3.30;1.97;;;;;;;10.73;98.11;100982.00;6265175;28;20567;-72
2023/01/02 02:54:45;;;;;;;3.57;2.33;;;;;;;10.87;97.64;100968.16;6276086;28;20624;-72
2023/01/02 02:58:07;;;;;;;2.90;2.40;;;;;;;10.86;97.46;100966.47;6275807;28;20588;-72
2023/01/02 03:01:30;;;;;;;6.00;3.33;;;;;;;10.95;97.07;100955.69;6256453;28;20357;-72
2023/01/02 03:04:55;;;;;;;1.90;1.60;;;;;;;10.86;97.38;100951.16;6276751;28;20550;-72
2023/01/02 03:08:23;;;;;;;3.53;2.37;;;;;;;10.92;97.58;100938.94;6276800;28;20234;-72
2023/01/02 03:11:54;;;;;;;3.87;3.57;;;;;;;10.96;97.39;100954.72;6267188;28;20494;-71
2023/01/02 03:15:21;;;;;;;2.97;2.33;;;;;;;11.03;97.04;100939.72;6261522;28;20234;-72
2023/01/02 03:18:52;;;;;;;2.83;2.63;;;;;;;11.03;97.26;100939.72;6275476;28;20226;-72
2023/01/02 03:22:19;;;;;;;2.73;1.73;;;;;;;11.03;96.67;100928.06;6258023;28;20230;-74
2023/01/02 03:25:42;;;;;;;2.37;2.10;;;;;;;11.02;96.74;100937.13;6256948;28;20320;-73
2023/01/02 03:29:07;;;;;;;1.73;1.63;;;;;;;10.96;97.23;100934.97;6273608;28;20317;-72
2023/01/02 03:32:32;;;;;;;4.37;2.30;;;;;;;11.07;96.49;100927.66;6256017;28;20608;-72
2023/01/02 03:35:56;;;;;;;2.37;1.83;;;;;;;11.03;97.08;100930.75;6261546;28;20227;-72
2023/01/02 03:39:20;;;;;;;1.93;1.70;;;;;;;11.06;96.88;100931.31;6273828;28;20258;-73
2023/01/02 03:42:45;;;;;;;4.83;1.77;;;;;;;11.15;96.41;100919.72;6266863;28;20258;-72
2023/01/02 03:46:13;;;;;;;2.53;2.33;;;;;;;11.19;96.30;100936.47;6261728;28;20247;-72
2023/01/02 03:49:38;;;;;;;4.97;2.23;;;;;;;11.29;96.48;100923.84;6268505;28;20246;-73
2023/01/02 03:52:59;;;;;;;6.97;1.83;;;;;;;11.37;96.62;100925.88;6244821;28;20239;-73
2023/01/02 03:56:31;;;;;;;3.60;1.53;;;;;;;11.36;96.59;100927.69;6256161;28;20227;-73
2023/01/02 04:00:01;;;;;;;2.50;1.90;;;;;;;11.44;96.11;100924.28;6272716;28;20734;-73
2023/01/02 04:03:29;;;;;;;2.60;1.83;;;;;;;11.51;95.48;100911.94;6272810;28;20231;-73
2023/01/02 04:06:54;;;;;;;1.57;1.40;;;;;;;11.60;95.75;100903.84;6262466;28;20682;-73
2023/01/02 04:10:16;;;;;;;3.17;2.37;;;;;;;11.69;95.03;100907.56;6263643;28;20230;-73
2023/01/02 04:13:41;;;;;;;3.50;2.77;;;;;;;11.79;95.40;100916.50;6277174;28;20253;-72
2023/01/02 04:17:07;;;;;;;5.57;2.70;;;;;;;11.86;94.27;100910.41;6265563;28;20222;-73
2023/01/02 04:20:32;;;;;;;5.43;2.37;;;;;;;11.91;93.78;100902.72;6267872;28;20591;-73
2023/01/02 04:23:58;;;;;;;5.70;2.23;;;;;;;12.10;92.65;100904.53;6280110;28;20256;-72
2023/01/02 04:27:24;;;;;;;3.93;2.70;;;;;;;12.22;92.41;100903.41;6261555;28;20231;-73
2023/01/02 04:30:54;;;;;;;7.73;2.90;;;;;;;12.34;91.38;100904.91;6266443;28;20239;-71
2023/01/02 04:34:17;;;;;;;2.43;2.00;;;;;;;12.44;91.52;100896.75;6269133;28;20813;-72
2023/01/02 04:37:40;;;;;;;5.00;1.73;;;;;;;12.53;90.58;100899.44;6263326;28;20901;-72
2023/01/02 04:41:02;;;;;;;3.60;1.90;;;;;;;12.55;90.53;100902.84;6269160;28;20487;-73
2023/01/02 04:44:23;;;;;;;4.60;1.60;;;;;;;12.56;90.74;100911.81;6278126;28;20223;-73
2023/01/02 04:47:47;;;;;;;3.03;1.97;;;;;;;12.52;90.62;100911.25;6267623;28;20771;-72
2023/01/02 04:51:07;;;;;;;9.03;3.00;;;;;;;12.50;91.13;100904.28;6265634;28;20313;-73
2023/01/02 04:54:28;;;;;;;4.50;2.73;;;;;;;12.47;91.43;100894.63;6276046;28;20227;-73
2023/01/02 04:57:49;;;;;;;4.33;2.13;;;;;;;12.46;91.74;100902.88;6266479;28;20231;-73
2023/01/02 05:01:10;;;;;;;5.00;2.77;;;;;;;12.40;92.37;100906.16;6269043;28;20281;-72
2023/01/02 05:04:32;;;;;;;4.60;3.07;;;;;;;12.36;92.92;100902.91;6280702;28;20620;-73
2023/01/02 05:07:53;;;;;;;3.27;2.60;;;;;;;12.36;93.21;100900.22;6251457;28;21066;-73
2023/01/02 05:11:16;;;;;;;5.67;2.27;;;;;;;12.35;93.20;100903.91;6266654;28;20227;-73
2023/01/02 05:14:37;;;;;;;2.43;1.80;;;;;;;12.35;92.87;100903.91;6278123;28;20231;-73
2023/01/02 05:17:58;;;;;;;4.40;3.03;;;;;;;12.30;93.94;100899.94;6280714;28;20227;-73
2023/01/02 05:24:58;;;;;;;2.87;2.43;;;;;;;12.21;93.52;100908.91;6263940;28;20219;-72
2023/01/02 05:28:19;;;;;;;4.17;2.97;;;;;;;12.16;94.92;100898.53;6275845;28;20247;-73
2023/01/02 05:31:40;;;;;;;4.87;2.50;;;;;;;12.11;95.34;100911.66;6264972;28;20688;-72
2023/01/02 05:35:01;;;;;;;3.17;2.73;;;;;;;12.13;95.42;100906.97;6258608;28;20797;-72
2023/01/02 05:38:23;;;;;;;2.93;2.30;;;;;;;12.15;95.32;100901.41;6271025;28;20235;-72
2023/01/02 05:41:44;;;;;;;3.73;2.87;;;;;;;12.06;95.47;100900.41;6247686;28;20605;-72
2023/01/02 05:45:05;;;;;;;6.30;2.33;;;;;;;12.04;95.65;100915.94;6260683;28;20726;-71
2023/01/02 05:48:28;;;;;;;3.20;1.87;;;;;;;11.96;95.75;100892.34;6268625;28;20231;-72
2023/01/02 05:51:49;;;;;;;3.50;1.93;;;;;;;11.97;96.36;100902.13;6264737;28;20231;-72
2023/01/02 05:55:11;;;;;;;3.60;2.30;;;;;;;11.99;96.09;100881.22;6268321;28;20664;-71
2023/01/02 05:58:32;;;;;;;3.77;2.07;;;;;;;12.02;96.08;100899.88;6275851;28;20223;-73
2023/01/02 06:01:53;;;;;;;6.90;2.43;;;;;;;12.08;96.38;100892.19;6247866;28;20227;-72
2023/01/02 06:05:15;;;;;;;3.53;2.23;;;;;;;12.10;96.23;100888.31;6254436;28;21332;-72
2023/01/02 06:08:36;;;;;;;4.87;2.73;;;;;;;12.19;95.77;100878.47;6271519;28;20234;-72
2023/01/02 06:11:58;;;;;;;3.00;2.80;;;;;;;12.22;96.43;100883.63;6258033;28;20227;-73
2023/01/02 06:15:19;;;;;;;5.77;2.90;;;;;;;12.22;97.01;100892.59;6263889;28;20259;-72
2023/01/02 06:18:41;;;;;;;3.63;1.67;;;;;;;12.24;97.25;100884.31;6274550;28;20716;-72
2023/01/02 06:22:02;;;;;;;3.57;2.63;;;;;;;12.28;97.10;100892.00;6247558;28;20231;-72
2023/01/02 06:25:23;;;;;;;4.50;2.63;;;;;;;12.30;97.25;100891.84;6265885;28;20700;-73
2023/01/02 06:28:48;;;;;;;6.50;3.93;;;;;;;12.27;97.50;100898.38;6275684;28;20259;-73
2023/01/02 06:32:09;;;;;;;5.27;1.80;;;;;;;12.21;97.98;100907.06;6253753;28;20230;-72
2023/01/02 06:35:30;;;;;;;3.80;3.20;;;;;;;12.23;98.46;100913.19;6258314;28;20231;-72
2023/01/02 06:38:51;;;;;;;4.43;2.27;;;;;;;12.19;99.55;100903.66;6274388;28;20227;-72
2023/01/02 06:42:12;;;;;;;4.13;2.30;;;;;;;12.12;100.00;100912.53;6258233;28;20234;-68
2023/01/02 06:45:34;;;;;;;2.80;2.20;;;;;;;12.13;99.90;100896.16;6253879;28;20239;-69
2023/01/02 06:48:55;;;;;;;3.40;2.20;;;;;;;12.16;100.00;100889.59;6264753;28;20239;-69
2023/01/02 06:52:16;;;;;;;3.90;2.47;;;;;;;12.14;100.00;100892.44;6256969;28;20231;-70
2023/01/02 06:55:37;;;;;;;7.17;4.07;;;;;;;12.13;100.00;100898.84;6261803;28;20223;-70
2023/01/02 06:58:58;;;;;;;2.23;2.03;;;;;;;12.14;100.00;100891.59;6264134;28;20231;-71
2023/01/02 07:02:21;;;;;;;3.07;2.77;;;;;;;12.13;100.00;100906.97;6260597;28;20278;-71
2023/01/02 07:05:42;;;;;;;3.27;2.10;;;;;;;12.15;100.00;100912.22;6266039;28;20704;-73
2023/01/02 07:09:02;;;;;;;2.07;1.87;;;;;;;12.19;99.73;100894.69;6266819;28;20516;-72
2023/01/02 07:12:23;;;;;;;3.93;1.50;;;;;;;12.26;99.27;100901.25;6259690;28;20510;-71
2023/01/02 07:15:45;;;;;;;8.60;2.43;;;;;;;12.30;99.14;100894.53;6261071;28;20571;-70
2023/01/02 07:19:08;;;;;;;3.77;2.60;;;;;;;12.36;99.21;100904.75;6276104;28;20687;-74
2023/01/02 07:22:29;;;;;;;7.80;3.10;;;;;;;12.37;98.56;100901.06;6244678;28;20242;-70
2023/01/02 07:25:52;;;;;;;4.47;1.80;;;;;;;12.36;98.99;100900.22;6250266;28;20235;-70
2023/01/02 07:29:13;;;;;;;4.00;2.27;;;;;;;12.35;98.56;100922.81;6272461;28;20499;-70
2023/01/02 07:32:35;;;;;;;3.63;2.17;;;;;;;12.41;97.96;100906.00;6249135;28;20319;-71
2023/01/02 07:35:58;;;;;;;5.30;2.53;;;;;;;12.36;97.97;100897.50;6262270;28;20239;-72
2023/01/02 07:39:19;;;;;;;4.13;1.93;;;;;;;12.35;98.54;100898.50;6264782;28;20223;-70
2023/01/02 07:42:40;;;;;;;3.00;2.13;;;;;;;12.37;98.57;100896.50;6260901;28;20227;-69
2023/01/02 07:46:05;;;;;;;6.77;2.57;;;;;;;12.42;97.58;100898.75;6264799;28;20251;-69
2023/01/02 07:49:25;;;;;;;8.33;2.70;;;;;;;12.45;97.48;100893.94;6274418;28;20235;-70
2023/01/02 07:52:48;;;;;;;2.60;2.23;;;;;;;12.48;97.60;100900.88;6261425;28;20258;-70
2023/01/02 07:56:09;;;;;;;2.97;1.80;;;;;;;12.52;96.61;100905.84;6268400;28;20251;-70
2023/01/02 07:59:30;;;;;;;4.07;2.33;;;;;;;12.52;96.36;100905.84;6274839;28;20231;-69
2023/01/02 08:02:53;;;;;;;2.43;1.87;;;;;;;12.55;95.81;100908.28;6255389;28;20240;-72
2023/01/02 08:06:16;;;;;;;3.10;2.57;;;;;;;12.60;95.64;100907.81;6247019;28;20243;-71
2023/01/02 08:09:39;;;;;;;2.30;2.00;;;;;;;12.59;95.73;100904.25;6260852;28;21464;-71
2023/01/02 08:12:59;;;;;;;6.23;3.27;;;;;;;12.63;95.19;100902.09;6258760;28;21090;-74
2023/01/02 08:16:21;;;;;;;5.80;2.17;;;;;;;12.59;95.70;100909.66;6258090;28;20238;-71
2023/01/02 08:19:42;;;;;;;6.13;2.13;;;;;;;12.61;95.26;100907.66;6262329;28;20227;-73
2023/01/02 08:23:03;;;;;;;2.07;1.87;;;;;;;12.64;94.88;100911.94;6282865;28;20616;-73
2023/01/02 08:26:25;;;;;;;3.67;3.37;;;;;;;12.66;95.29;100908.06;6251273;28;20231;-70
2023/01/02 08:29:46;;;;;;;3.17;1.97;;;;;;;12.68;94.64;100905.22;6268551;28;20361;-71
2023/01/02 08:33:07;;;;;;;5.27;1.87;;;;;;;12.68;94.86;100921.47;6268343;28;20247;-72
2023/01/02 08:36:28;;;;;;;4.13;1.80;;;;;;;12.69;94.37;100929.41;6277000;28;20227;-71
2023/01/02 08:39:49;;;;;;;5.30;2.23;;;;;;;12.69;94.88;100937.53;6275382;28;20254;-70
2023/01/02 08:43:11;;;;;;;5.60;1.97;;;;;;;12.71;94.71;100923.84;6264443;28;20259;-72
2023/01/02 08:46:34;;;;;;;4.13;3.00;;;;;;;12.71;93.98;100940.94;6256724;28;20227;-70
2023/01/02 08:49:55;;;;;;;2.50;1.73;;;;;;;12.72;94.58;100931.81;6260846;28;20243;-70
2023/01/02 08:53:15;;;;;;;4.70;2.03;;;;;;;12.70;94.74;100939.22;6280214;28;20227;-71
2023/01/02 08:56:37;;;;;;;1.90;1.80;;;;;;;12.69;94.58;100940.22;6269724;28;20227;-71
2023/01/02 08:59:59;;;;;;;1.60;1.50;;;;;;;12.73;94.02;100952.47;6270253;28;20230;-72
2023/01/02 09:03:20;;;;;;;2.17;1.60;;;;;;;12.76;94.61;100938.66;6274425;28;20219;-72
2023/01/02 09:06:42;;;;;;;1.70;1.60;;;;;;;12.79;94.64;100927.50;6264399;28;20235;-66
2023/01/02 09:10:04;;;;;;;3.03;2.47;;;;;;;12.78;94.59;100950.19;6259703;28;20239;-67
2023/01/02 09:13:25;;;;;;;3.40;1.63;;;;;;;12.81;93.72;100949.00;6270956;28;20231;-71
2023/01/02 09:16:48;;;;;;;12.97;2.67;;;;;;;12.77;93.91;100937.63;6258759;28;20227;-71
2023/01/02 09:20:09;;;;;;;4.07;3.30;;;;;;;12.79;93.43;100935.63;6269994;28;20778;-72
2023/01/02 09:23:31;;;;;;;2.63;2.43;;;;;;;12.80;93.58;100945.47;6265623;28;20531;-70
2023/01/02 09:26:52;;;;;;;1.93;1.83;;;;;;;12.84;92.77;100937.91;6263549;28;20230;-72
2023/01/02 09:30:13;;;;;;;3.07;1.80;;;;;;;12.90;92.46;100937.28;6254787;28;21618;-73
2023/01/02 09:33:35;;;;;;;2.63;1.57;;;;;;;12.94;91.62;100945.97;6274282;28;20603;-74
2023/01/02 09:36:56;;;;;;;5.13;3.43;;;;;;;12.96;91.59;100939.41;6262080;28;20251;-73
2023/01/02 09:40:17;;;;;;;3.57;2.07;;;;;;;12.95;90.65;100932.31;6261064;28;20235;-71
2023/01/02 09:43:42;;;;;;;2.00;1.53;;;;;;;12.98;90.96;100933.81;6281580;28;20227;-70
2023/01/02 09:47:07;;;;;;;2.13;2.03;;;;;;;13.00;90.98;100950.75;6260302;28;20235;-70
2023/01/02 09:50:30;;;;;;;4.03;2.00;;;;;;;13.02;90.01;100955.03;6269475;28;20243;-73
2023/01/02 09:53:52;;;;;;;2.87;2.47;;;;;;;13.06;90.29;100947.53;6267695;28;20390;-71
2023/01/02 09:57:25;;;;;;;1.93;1.83;;;;;;;13.06;89.96;100959.19;6255472;28;21572;-74
2023/01/02 10:00:49;;;;;;;3.43;2.13;;;;;;;13.10;89.40;100957.88;6260212;28;20227;-72
2023/01/02 10:04:20;;;;;;;2.80;1.80;;;;;;;13.10;89.23;100947.03;6269493;28;20227;-71
2023/01/02 10:07:52;;;;;;;3.37;2.20;;;;;;;13.13;89.22;100951.31;6247256;28;20604;-71
2023/01/02 10:11:31;;;;;;;2.50;1.93;;;;;;;13.13;88.99;100956.72;6248115;28;20222;-76
2023/01/02 10:14:56;;;;;;;2.17;1.93;;;;;;;13.13;88.99;100959.44;6281979;28;20234;-71
2023/01/02 10:18:23;;;;;;;5.93;2.47;;;;;;;13.15;88.55;100965.53;6277999;28;20227;-73
2023/01/02 10:21:47;;;;;;;2.30;2.13;;;;;;;13.16;88.67;100959.16;6263459;28;20228;-71
2023/01/02 10:25:17;;;;;;;1.97;1.77;;;;;;;13.19;87.69;100970.50;6246447;28;20231;-73
2023/01/02 10:28:46;;;;;;;3.67;1.53;;;;;;;13.23;87.43;100974.63;6276186;28;20223;-72
2023/01/02 10:32:12;;;;;;;5.53;1.87;;;;;;;13.24;87.21;100953.81;6262817;28;20235;-74
2023/01/02 10:35:37;;;;;;;5.20;1.80;;;;;;;13.25;86.53;100956.38;6266832;28;20235;-75
2023/01/02 10:39:00;;;;;;;5.60;2.00;;;;;;;13.26;86.77;100949.97;6272975;28;20234;-73
2023/01/02 10:42:23;;;;;;;3.23;2.07;;;;;;;13.29;86.39;100962.31;6268326;28;20223;-71
2023/01/02 10:45:44;;;;;;;3.17;2.03;;;;;;;13.29;86.32;100967.75;6265938;28;20226;-72
2023/01/02 10:49:08;;;;;;;2.20;2.00;;;;;;;13.18;87.21;100966.13;6276390;28;20227;-70
2023/01/02 10:52:33;;;;;;;2.80;1.40;;;;;;;13.13;88.06;100971.13;6268101;28;20219;-74
2023/01/02 10:55:54;;;;;;;5.67;1.93;;;;;;;13.07;88.13;100966.31;6266954;28;20346;-71
2023/01/02 10:59:22;;;;;;;2.43;2.20;;;;;;;13.04;87.81;100971.16;6284142;28;20307;-70
2023/01/02 11:02:49;;;;;;;1.93;1.73;;;;;;;12.98;88.23;100980.69;6251651;28;20246;-71
2023/01/02 11:06:20;;;;;;;2.30;1.47;;;;;;;12.93;88.25;100964.06;6229132;28;20223;-70
2023/01/02 11:09:54;;;;;;;4.90;2.67;;;;;;;12.94;88.13;100970.31;6263867;28;20235;-71
2023/01/02 11:13:17;;;;;;;1.67;1.53;;;;;;;12.98;88.70;100980.69;6267058;28;20557;-70
2023/01/02 11:16:41;;;;;;;1.83;1.73;;;;;;;12.99;88.50;100987.81;6221084;28;20951;-71
2023/01/02 11:20:02;;;;;;;1.63;1.53;;;;;;;13.02;88.25;100979.38;6263934;28;20227;-72
2023/01/02 11:23:25;;;;;;;2.17;1.30;;;;;;;12.99;88.78;100989.66;6270418;28;20960;-70
2023/01/02 11:26:49;;;;;;;1.43;1.30;;;;;;;12.93;89.77;101010.06;6265376;28;20247;-70
2023/01/02 11:30:27;;;;;;;2.80;1.50;;;;;;;12.62;92.97;101012.13;6259402;28;20326;-69
2023/01/02 11:33:50;;;;;;;1.73;1.30;;;;;;;12.39;95.05;101043.19;6266163;28;20226;-70
2023/01/02 11:37:16;;;;;;;3.70;1.17;;;;;;;12.24;94.87;101044.66;6261956;28;20224;-68
2023/01/02 11:40:37;;;;;;;0.63;0.63;;;;;;;12.08;94.96;101052.44;6260989;28;20319;-68
2023/01/02 11:44:00;;;;;;;2.10;0.87;;;;;;;12.10;93.69;101111.78;6263161;28;20679;-69
2023/01/02 11:47:30;;;;;;;2.00;0.80;;;;;;;11.76;93.36;101100.47;6262608;28;20306;-69
2023/01/02 11:50:52;;;;;;;0.30;0.30;;;;;;;11.73;91.08;101109.69;6253502;28;20952;-69
2023/01/02 11:54:19;;;;;;;1.40;0.57;;;;;;;11.51;88.26;101100.94;6266991;28;20242;-69
2023/01/02 11:57:45;;;;;;;0.37;0.37;;;;;;;11.72;89.15;101110.69;6266387;28;20255;-68
2023/01/02 12:01:16;;;;;;;0.77;0.60;;;;;;;11.65;86.65;101130.25;6260555;28;20255;-69
2023/01/02 12:04:36;;;;;;;0.40;0.40;;;;;;;11.35;86.80;101149.19;6271522;28;20317;-69
2023/01/02 12:08:06;;;;;;;0.43;0.43;;;;;;;11.15;88.09;101151.75;6247398;28;20561;-68
2023/01/02 12:11:40;;;;;;;1.17;0.50;;;;;;;11.17;87.21;101165.97;6267629;28;20242;-68
2023/01/02 12:15:22;;;;;;;0.27;0.27;;;;;;;11.04;87.62;101191.44;6265688;28;20361;-70
2023/01/02 12:18:57;;;;;;;0.77;0.77;;;;;;;10.99;87.74;101197.22;6277161;28;20527;-70
2023/01/02 12:22:31;;;;;;;0.30;0.30;;;;;;;11.13;87.78;101209.53;6264445;28;20231;-70
2023/01/02 12:26:02;;;;;;;0.50;0.50;;;;;;;11.13;87.64;101221.19;6261501;28;20231;-70
2023/01/02 12:29:37;;;;;;;0.50;0.50;;;;;;;11.21;86.24;101226.78;6274660;28;20231;-69
2023/01/02 12:33:34;;;;;;;0.37;0.37;;;;;;;10.96;85.20;101240.66;6268610;28;20800;-70
2023/01/02 12:37:08;;;;;;;1.03;0.67;;;;;;;10.93;85.97;101240.06;6268188;28;20235;-73
2023/01/02 12:40:37;;;;;;;0.47;0.47;;;;;;;10.93;85.09;101232.81;6260580;28;20234;-70
2023/01/02 12:44:29;;;;;;;0.40;0.40;;;;;;;10.85;85.54;101226.34;6263265;28;20238;-72
2023/01/02 12:48:09;;;;;;;0.47;0.43;;;;;;;10.73;84.92;101232.78;6263035;28;20413;-72
2023/01/02 12:51:35;;;;;;;0.30;0.30;;;;;;;10.69;85.08;101251.06;6271993;28;20813;-72
2023/01/02 12:55:15;;;;;;;0.40;0.40;;;;;;;10.55;86.84;101259.44;6276068;28;20222;-72
2023/01/02 12:58:49;;;;;;;0.50;0.50;;;;;;;10.56;87.28;101271.06;6261751;28;20235;-69
2023/01/02 13:02:25;;;;;;;0.60;0.60;;;;;;;10.56;87.49;101292.63;6269804;28;20250;-71
2023/01/02 13:05:52;;;;;;;1.27;0.70;;;;;;;10.64;86.68;101317.16;6274036;28;20227;-68
2023/01/02 13:09:18;;;;;;;0.47;0.47;;;;;;;10.64;86.59;101320.69;6286876;28;20219;-71
2023/01/02 13:12:39;;;;;;;0.70;0.70;;;;;;;10.59;86.38;101333.69;6267167;28;20236;-68
2023/01/02 13:16:05;;;;;;;0.50;0.50;;;;;;;10.35;87.39;101341.91;6263631;28;20227;-69
2023/01/02 13:19:37;;;;;;;0.90;0.77;;;;;;;9.99;88.49;101344.81;6273491;28;20235;-70
2023/01/02 13:23:04;;;;;;;0.87;0.60;;;;;;;10.23;88.62;101358.22;6241889;28;20227;-70
2023/01/02 13:26:28;;;;;;;0.80;0.80;;;;;;;10.30;86.82;101362.13;6261458;28;20235;-68
2023/01/02 13:29:49;;;;;;;1.17;0.77;;;;;;;10.17;86.50;101366.78;6273630;28;20267;-69
2023/01/02 13:33:27;;;;;;;1.87;0.50;;;;;;;9.75;87.24;101381.75;6268276;28;20258;-71
2023/01/02 13:36:56;;;;;;;0.60;0.60;;;;;;;9.90;86.86;101377.00;6265395;28;20227;-69
2023/01/02 13:40:26;;;;;;;0.30;0.30;;;;;;;10.01;85.83;101385.94;6257099;28;20239;-68
2023/01/02 13:43:52;;;;;;;0.60;0.60;;;;;;;10.26;84.92;101387.63;6278611;28;20235;-72
2023/01/02 13:47:16;;;;;;;2.57;1.37;;;;;;;10.03;84.81;101384.00;6249210;28;20254;-70
2023/01/02 13:50:39;;;;;;;0.60;0.60;;;;;;;10.06;83.90;101374.81;6259983;28;20327;-69
2023/01/02 13:54:09;;;;;;;0.50;0.50;;;;;;;9.97;83.77;101389.03;6272789;28;20235;-71
2023/01/02 13:57:31;;;;;;;0.40;0.40;;;;;;;9.93;83.07;101390.25;6261092;28;20231;-70
2023/01/02 14:00:54;;;;;;;0.50;0.50;;;;;;;9.99;83.36;101404.06;6254780;28;20223;-69
2023/01/02 14:04:36;;;;;;;1.00;1.00;;;;;;;9.96;83.57;101419.59;6257056;28;20258;-72
2023/01/02 14:08:24;;;;;;;0.50;0.50;;;;;;;9.82;84.19;101422.50;6264772;28;20223;-71
2023/01/02 14:11:50;;;;;;;0.67;0.67;;;;;;;9.89;84.28;101418.38;6260897;28;20257;-72
2023/01/02 14:15:17;;;;;;;0.83;0.60;;;;;;;9.77;85.09;101430.06;6260726;28;20226;-70
2023/01/02 14:18:39;;;;;;;1.90;0.63;;;;;;;9.79;85.16;101415.53;6269864;28;20226;-69
2023/01/02 14:22:11;;;;;;;0.47;0.47;;;;;;;9.84;85.25;101440.28;6261215;28;20313;-72
2023/01/02 14:25:32;;;;;;;0.90;0.90;;;;;;;9.68;85.94;101444.25;6265532;28;20215;-71
2023/01/02 14:28:55;;;;;;;4.23;0.80;;;;;;;9.68;86.13;101445.97;6275239;28;20227;-70
2023/01/02 14:32:21;;;;;;;0.80;0.80;;;;;;;9.75;85.46;101453.56;6265072;28;20227;-69
2023/01/02 14:35:52;;;;;;;0.87;0.87;;;;;;;9.68;85.69;101449.63;6263502;28;20517;-71
2023/01/02 14:39:20;;;;;;;0.40;0.40;;;;;;;9.82;85.44;101457.53;6270422;28;20258;-70
2023/01/02 14:46:25;;;;;;;0.60;0.60;;;;;;;9.27;90.10;101488.56;6260102;28;20530;-69
2023/01/02 14:49:56;;;;;;;1.00;1.00;;;;;;;9.42;94.31;101492.81;6269219;28;20337;-69
2023/01/02 14:53:23;;;;;;;1.70;1.07;;;;;;;9.37;93.47;101505.75;6269817;28;20246;-68
2023/01/02 14:56:48;;;;;;;1.50;0.70;;;;;;;9.61;93.02;101498.56;6263607;28;20223;-70
2023/01/02 15:00:21;;;;;;;0.70;0.70;;;;;;;9.67;92.52;101508.00;6251789;28;20583;-67
2023/01/02 15:03:50;;;;;;;5.07;1.07;;;;;;;9.75;91.28;101507.41;6267987;28;20227;-68
2023/01/02 15:07:24;;;;;;;0.80;0.80;;;;;;;9.72;90.58;101508.50;6253855;28;20235;-68
2023/01/02 15:13:02;;;;;;;2.27;1.20;;;;;;;9.73;91.38;101510.22;6261697;28;20231;-67
2023/01/02 15:14:42;;;;;;;0.40;0.40;;;;;;;9.91;89.95;101514.22;6276804;28;20231;-68
2023/01/02 15:18:06;;;;;;;0.80;0.80;;;;;;;9.98;89.86;101517.31;6273734;28;20234;-69
2023/01/02 15:21:30;;;;;;;2.30;0.60;;;;;;;9.78;88.89;101515.28;6263150;28;20580;-68
2023/01/02 15:24:53;;;;;;;2.03;1.40;;;;;;;9.80;90.38;101519.56;6262110;28;20231;-68
2023/01/02 15:28:26;;;;;;;1.17;0.67;;;;;;;9.90;87.73;101517.91;6285842;28;20573;-68
2023/01/02 15:31:52;;;;;;;0.50;0.50;;;;;;;9.87;87.87;101519.94;6256781;28;20322;-68
2023/01/02 15:35:24;;;;;;;0.87;0.67;;;;;;;9.64;88.15;101530.63;6262357;28;20271;-68
2023/01/02 15:38:47;;;;;;;1.17;0.90;;;;;;;9.77;88.00;101557.50;6274697;28;20611;-68
2023/01/02 15:45:51;;;;;;;0.83;0.80;;;;;;;9.72;87.96;101562.34;6272694;28;20219;-67
2023/01/02 15:49:14;;;;;;;1.97;0.60;;;;;;;9.68;87.77;101562.72;6277471;28;20557;-68
2023/01/02 15:52:35;;;;;;;6.27;0.97;;;;;;;9.68;87.72;101571.63;6261482;28;20287;-68
2023/01/02 15:55:58;;;;;;;1.27;1.17;;;;;;;9.63;87.73;101558.53;6232692;28;20235;-68
2023/01/02 15:59:25;;;;;;;1.47;0.77;;;;;;;9.67;87.47;101551.06;6267592;28;20528;-68
2023/01/02 16:02:46;;;;;;;0.90;0.90;;;;;;;9.77;88.32;101557.50;6258401;28;20692;-68
2023/01/02 16:06:15;;;;;;;0.90;0.90;;;;;;;9.73;87.61;101561.38;6258645;28;20242;-67